sensor_id;sensor_type;location;lat;lon;timestamp;P1;durP1;ratioP1;P2;durP2;ratioP2
20478;SDS011;10398;52.490;13.434;2023-02-28T00:01:23;7.77;;;2.73;;
20478;SDS011;10398;52.490;13.434;2023-02-28T00:03:49;5.60;;;1.60;;
20478;SDS011;10398;52.490;13.434;2023-02-28T00:06:15;15.93;;;4.83;;
20478;SDS011;10398;52.490;13.434;2023-02-28T00:08:41;7.73;;;2.30;;
20478;SDS011;10398;52.490;13.434;2023-02-28T00:11:09;8.50;;;1.70;;
20478;SDS011;10398;52.490;13.434;2023-02-28T00:13:36;9.03;;;2.50;;
20478;SDS011;10398;52.490;13.434;2023-02-28T00:16:06;7.53;;;2.00;;
20478;SDS011;10398;52.490;13.434;2023-02-28T00:18:42;3.47;;;1.47;;
20478;SDS011;10398;52.490;13.434;2023-02-28T00:21:10;5.63;;;1.57;;
20478;SDS011;10398;52.490;13.434;2023-02-28T00:23:36;6.67;;;2.00;;
20478;SDS011;10398;52.490;13.434;2023-02-28T00:26:04;6.23;;;1.77;;
20478;SDS011;10398;52.490;13.434;2023-02-28T00:28:30;6.73;;;1.93;;
20478;SDS011;10398;52.490;13.434;2023-02-28T00:30:55;6.10;;;1.83;;
20478;SDS011;10398;52.490;13.434;2023-02-28T00:33:22;4.37;;;1.93;;
20478;SDS011;10398;52.490;13.434;2023-02-28T00:35:48;6.47;;;1.67;;
20478;SDS011;10398;52.490;13.434;2023-02-28T00:38:14;5.40;;;1.63;;
20478;SDS011;10398;52.490;13.434;2023-02-28T00:40:42;4.43;;;1.90;;
20478;SDS011;10398;52.490;13.434;2023-02-28T00:43:11;8.50;;;1.83;;
20478;SDS011;10398;52.490;13.434;2023-02-28T00:45:36;7.07;;;2.00;;
20478;SDS011;10398;52.490;13.434;2023-02-28T00:48:05;6.63;;;2.17;;
20478;SDS011;10398;52.490;13.434;2023-02-28T00:50:31;3.77;;;1.90;;
20478;SDS011;10398;52.490;13.434;2023-02-28T00:52:59;4.73;;;2.17;;
20478;SDS011;10398;52.490;13.434;2023-02-28T00:55:25;6.50;;;2.30;;
20478;SDS011;10398;52.490;13.434;2023-02-28T00:57:50;5.43;;;1.70;;
20478;SDS011;10398;52.490;13.434;2023-02-28T01:00:16;5.30;;;2.07;;
20478;SDS011;10398;52.490;13.434;2023-02-28T01:02:41;5.07;;;2.10;;
20478;SDS011;10398;52.490;13.434;2023-02-28T01:05:07;4.97;;;1.80;;
20478;SDS011;10398;52.490;13.434;2023-02-28T01:07:33;6.57;;;2.13;;
20478;SDS011;10398;52.490;13.434;2023-02-28T01:09:59;4.07;;;1.83;;
20478;SDS011;10398;52.490;13.434;2023-02-28T01:12:24;4.07;;;1.67;;
20478;SDS011;10398;52.490;13.434;2023-02-28T01:14:50;8.57;;;1.73;;
20478;SDS011;10398;52.490;13.434;2023-02-28T01:17:16;2.57;;;1.50;;
20478;SDS011;10398;52.490;13.434;2023-02-28T01:19:41;4.13;;;1.77;;
20478;SDS011;10398;52.490;13.434;2023-02-28T01:22:07;6.60;;;2.10;;
20478;SDS011;10398;52.490;13.434;2023-02-28T01:24:33;5.80;;;2.00;;
20478;SDS011;10398;52.490;13.434;2023-02-28T01:26:58;6.10;;;2.20;;
20478;SDS011;10398;52.490;13.434;2023-02-28T01:29:24;6.40;;;2.00;;
20478;SDS011;10398;52.490;13.434;2023-02-28T01:31:50;5.70;;;2.07;;
20478;SDS011;10398;52.490;13.434;2023-02-28T01:34:16;7.43;;;2.60;;
20478;SDS011;10398;52.490;13.434;2023-02-28T01:36:44;4.93;;;1.97;;
20478;SDS011;10398;52.490;13.434;2023-02-28T01:39:17;5.83;;;1.97;;
20478;SDS011;10398;52.490;13.434;2023-02-28T01:41:43;6.27;;;1.87;;
20478;SDS011;10398;52.490;13.434;2023-02-28T01:47:12;9.73;;;2.13;;
20478;SDS011;10398;52.490;13.434;2023-02-28T01:49:38;4.33;;;2.37;;
20478;SDS011;10398;52.490;13.434;2023-02-28T01:52:04;6.77;;;1.87;;
20478;SDS011;10398;52.490;13.434;2023-02-28T01:54:31;4.87;;;1.93;;
20478;SDS011;10398;52.490;13.434;2023-02-28T01:57:01;6.53;;;1.93;;
20478;SDS011;10398;52.490;13.434;2023-02-28T01:59:38;6.37;;;2.10;;
20478;SDS011;10398;52.490;13.434;2023-02-28T02:02:14;5.57;;;2.17;;
20478;SDS011;10398;52.490;13.434;2023-02-28T02:04:46;5.03;;;1.90;;
20478;SDS011;10398;52.490;13.434;2023-02-28T02:07:20;7.10;;;2.10;;
20478;SDS011;10398;52.490;13.434;2023-02-28T02:09:47;4.20;;;2.00;;
20478;SDS011;10398;52.490;13.434;2023-02-28T02:15:09;8.00;;;2.00;;
20478;SDS011;10398;52.490;13.434;2023-02-28T02:17:48;4.03;;;2.00;;
20478;SDS011;10398;52.490;13.434;2023-02-28T02:21:06;4.60;;;1.97;;
20478;SDS011;10398;52.490;13.434;2023-02-28T02:23:43;5.70;;;1.90;;
20478;SDS011;10398;52.490;13.434;2023-02-28T02:34:42;7.30;;;2.00;;
20478;SDS011;10398;52.490;13.434;2023-02-28T02:37:36;5.97;;;2.30;;
20478;SDS011;10398;52.490;13.434;2023-02-28T02:40:10;4.43;;;2.00;;
20478;SDS011;10398;52.490;13.434;2023-02-28T02:45:34;6.10;;;2.30;;
20478;SDS011;10398;52.490;13.434;2023-02-28T02:48:05;10.60;;;2.30;;
20478;SDS011;10398;52.490;13.434;2023-02-28T02:50:36;4.27;;;2.00;;
20478;SDS011;10398;52.490;13.434;2023-02-28T02:53:05;6.40;;;1.93;;
20478;SDS011;10398;52.490;13.434;2023-02-28T02:55:35;10.23;;;3.20;;
20478;SDS011;10398;52.490;13.434;2023-02-28T02:58:04;4.57;;;1.97;;
20478;SDS011;10398;52.490;13.434;2023-02-28T03:03:03;4.30;;;1.83;;
20478;SDS011;10398;52.490;13.434;2023-02-28T03:05:49;6.00;;;2.37;;
20478;SDS011;10398;52.490;13.434;2023-02-28T03:08:16;8.07;;;2.57;;
20478;SDS011;10398;52.490;13.434;2023-02-28T03:10:43;5.43;;;2.33;;
20478;SDS011;10398;52.490;13.434;2023-02-28T03:15:50;9.10;;;2.80;;
20478;SDS011;10398;52.490;13.434;2023-02-28T03:18:43;7.30;;;2.03;;
20478;SDS011;10398;52.490;13.434;2023-02-28T03:21:23;4.70;;;1.93;;
20478;SDS011;10398;52.490;13.434;2023-02-28T03:24:12;4.10;;;2.30;;
20478;SDS011;10398;52.490;13.434;2023-02-28T03:26:56;5.87;;;2.07;;
20478;SDS011;10398;52.490;13.434;2023-02-28T03:29:32;7.13;;;2.63;;
20478;SDS011;10398;52.490;13.434;2023-02-28T03:32:06;5.83;;;2.77;;
20478;SDS011;10398;52.490;13.434;2023-02-28T03:34:48;7.23;;;2.27;;
20478;SDS011;10398;52.490;13.434;2023-02-28T03:37:35;6.00;;;2.30;;
20478;SDS011;10398;52.490;13.434;2023-02-28T03:40:08;4.27;;;2.10;;
20478;SDS011;10398;52.490;13.434;2023-02-28T03:42:39;5.97;;;1.97;;
20478;SDS011;10398;52.490;13.434;2023-02-28T03:45:18;4.57;;;1.83;;
20478;SDS011;10398;52.490;13.434;2023-02-28T03:47:55;6.53;;;2.20;;
20478;SDS011;10398;52.490;13.434;2023-02-28T03:50:39;4.80;;;2.23;;
20478;SDS011;10398;52.490;13.434;2023-02-28T03:55:56;7.23;;;2.70;;
20478;SDS011;10398;52.490;13.434;2023-02-28T03:58:26;4.03;;;2.30;;
20478;SDS011;10398;52.490;13.434;2023-02-28T04:01:08;2.80;;;1.83;;
20478;SDS011;10398;52.490;13.434;2023-02-28T04:03:44;6.13;;;2.77;;
20478;SDS011;10398;52.490;13.434;2023-02-28T04:06:13;6.30;;;3.07;;
20478;SDS011;10398;52.490;13.434;2023-02-28T04:08:42;4.60;;;2.07;;
20478;SDS011;10398;52.490;13.434;2023-02-28T04:11:18;6.00;;;2.60;;
20478;SDS011;10398;52.490;13.434;2023-02-28T04:13:52;6.47;;;2.20;;
20478;SDS011;10398;52.490;13.434;2023-02-28T04:16:18;5.00;;;2.20;;
20478;SDS011;10398;52.490;13.434;2023-02-28T04:18:44;5.47;;;2.40;;
20478;SDS011;10398;52.490;13.434;2023-02-28T04:21:10;5.23;;;2.33;;
20478;SDS011;10398;52.490;13.434;2023-02-28T04:23:36;5.17;;;2.30;;
20478;SDS011;10398;52.490;13.434;2023-02-28T04:26:02;5.70;;;2.30;;
20478;SDS011;10398;52.490;13.434;2023-02-28T04:28:29;7.00;;;2.00;;
20478;SDS011;10398;52.490;13.434;2023-02-28T04:30:59;7.87;;;2.57;;
20478;SDS011;10398;52.490;13.434;2023-02-28T04:33:26;7.67;;;2.30;;
20478;SDS011;10398;52.490;13.434;2023-02-28T04:36:02;5.90;;;2.37;;
20478;SDS011;10398;52.490;13.434;2023-02-28T04:38:33;4.47;;;2.23;;
20478;SDS011;10398;52.490;13.434;2023-02-28T04:41:01;5.23;;;2.23;;
20478;SDS011;10398;52.490;13.434;2023-02-28T04:43:27;6.00;;;2.70;;
20478;SDS011;10398;52.490;13.434;2023-02-28T04:45:55;5.73;;;2.17;;
20478;SDS011;10398;52.490;13.434;2023-02-28T04:48:25;5.60;;;2.47;;
20478;SDS011;10398;52.490;13.434;2023-02-28T04:50:53;8.17;;;2.73;;
20478;SDS011;10398;52.490;13.434;2023-02-28T04:53:19;25.47;;;8.77;;
20478;SDS011;10398;52.490;13.434;2023-02-28T04:55:45;13.43;;;3.47;;
20478;SDS011;10398;52.490;13.434;2023-02-28T04:58:11;9.13;;;3.33;;
20478;SDS011;10398;52.490;13.434;2023-02-28T05:00:37;14.43;;;5.03;;
20478;SDS011;10398;52.490;13.434;2023-02-28T05:03:03;7.30;;;2.47;;
20478;SDS011;10398;52.490;13.434;2023-02-28T05:05:29;5.40;;;2.57;;
20478;SDS011;10398;52.490;13.434;2023-02-28T05:07:54;5.47;;;2.40;;
20478;SDS011;10398;52.490;13.434;2023-02-28T05:10:21;7.70;;;2.60;;
20478;SDS011;10398;52.490;13.434;2023-02-28T05:12:47;8.37;;;2.77;;
20478;SDS011;10398;52.490;13.434;2023-02-28T05:15:14;8.73;;;2.77;;
20478;SDS011;10398;52.490;13.434;2023-02-28T05:17:40;8.77;;;2.77;;
20478;SDS011;10398;52.490;13.434;2023-02-28T05:20:06;6.07;;;2.30;;
20478;SDS011;10398;52.490;13.434;2023-02-28T05:22:35;5.47;;;2.30;;
20478;SDS011;10398;52.490;13.434;2023-02-28T05:25:02;8.03;;;3.20;;
20478;SDS011;10398;52.490;13.434;2023-02-28T05:27:29;11.93;;;2.57;;
20478;SDS011;10398;52.490;13.434;2023-02-28T05:29:55;8.07;;;2.53;;
20478;SDS011;10398;52.490;13.434;2023-02-28T05:32:21;7.63;;;2.20;;
20478;SDS011;10398;52.490;13.434;2023-02-28T05:34:47;8.17;;;2.80;;
20478;SDS011;10398;52.490;13.434;2023-02-28T05:37:12;5.70;;;2.37;;
20478;SDS011;10398;52.490;13.434;2023-02-28T05:39:39;8.47;;;3.03;;
20478;SDS011;10398;52.490;13.434;2023-02-28T05:42:05;8.43;;;3.03;;
20478;SDS011;10398;52.490;13.434;2023-02-28T05:44:31;6.10;;;2.70;;
20478;SDS011;10398;52.490;13.434;2023-02-28T05:46:57;7.43;;;2.87;;
20478;SDS011;10398;52.490;13.434;2023-02-28T05:49:22;7.67;;;2.80;;
20478;SDS011;10398;52.490;13.434;2023-02-28T05:51:48;11.87;;;2.70;;
20478;SDS011;10398;52.490;13.434;2023-02-28T05:54:14;5.57;;;2.37;;
20478;SDS011;10398;52.490;13.434;2023-02-28T05:56:40;7.90;;;2.70;;
20478;SDS011;10398;52.490;13.434;2023-02-28T05:59:09;6.20;;;2.67;;
20478;SDS011;10398;52.490;13.434;2023-02-28T06:01:42;8.30;;;3.20;;
20478;SDS011;10398;52.490;13.434;2023-02-28T06:04:13;4.67;;;2.50;;
20478;SDS011;10398;52.490;13.434;2023-02-28T06:06:44;7.03;;;2.90;;
20478;SDS011;10398;52.490;13.434;2023-02-28T06:09:11;4.43;;;2.20;;
20478;SDS011;10398;52.490;13.434;2023-02-28T06:11:36;8.30;;;3.00;;
20478;SDS011;10398;52.490;13.434;2023-02-28T06:14:02;7.53;;;2.70;;
20478;SDS011;10398;52.490;13.434;2023-02-28T06:16:30;6.47;;;2.73;;
20478;SDS011;10398;52.490;13.434;2023-02-28T06:18:57;18.73;;;5.87;;
20478;SDS011;10398;52.490;13.434;2023-02-28T06:21:24;14.67;;;5.33;;
20478;SDS011;10398;52.490;13.434;2023-02-28T06:23:50;14.10;;;4.73;;
20478;SDS011;10398;52.490;13.434;2023-02-28T06:26:16;13.60;;;3.97;;
20478;SDS011;10398;52.490;13.434;2023-02-28T06:28:41;6.40;;;3.57;;
20478;SDS011;10398;52.490;13.434;2023-02-28T06:31:11;10.77;;;4.33;;
20478;SDS011;10398;52.490;13.434;2023-02-28T06:33:39;7.17;;;3.40;;
20478;SDS011;10398;52.490;13.434;2023-02-28T06:36:06;9.90;;;3.60;;
20478;SDS011;10398;52.490;13.434;2023-02-28T06:38:32;6.23;;;3.30;;
20478;SDS011;10398;52.490;13.434;2023-02-28T06:40:59;8.47;;;3.30;;
20478;SDS011;10398;52.490;13.434;2023-02-28T06:43:27;7.97;;;3.53;;
20478;SDS011;10398;52.490;13.434;2023-02-28T06:45:54;7.30;;;3.03;;
20478;SDS011;10398;52.490;13.434;2023-02-28T06:48:21;7.03;;;2.90;;
20478;SDS011;10398;52.490;13.434;2023-02-28T06:50:47;15.00;;;3.77;;
20478;SDS011;10398;52.490;13.434;2023-02-28T06:53:13;7.67;;;3.63;;
20478;SDS011;10398;52.490;13.434;2023-02-28T06:55:40;7.93;;;3.30;;
20478;SDS011;10398;52.490;13.434;2023-02-28T06:58:09;11.83;;;3.50;;
20478;SDS011;10398;52.490;13.434;2023-02-28T07:00:43;7.67;;;3.47;;
20478;SDS011;10398;52.490;13.434;2023-02-28T07:03:10;13.93;;;4.10;;
20478;SDS011;10398;52.490;13.434;2023-02-28T07:05:40;26.60;;;5.23;;
20478;SDS011;10398;52.490;13.434;2023-02-28T07:08:06;13.27;;;5.37;;
20478;SDS011;10398;52.490;13.434;2023-02-28T07:10:32;18.63;;;6.17;;
20478;SDS011;10398;52.490;13.434;2023-02-28T07:12:58;19.23;;;5.43;;
20478;SDS011;10398;52.490;13.434;2023-02-28T07:15:24;12.53;;;4.97;;
20478;SDS011;10398;52.490;13.434;2023-02-28T07:17:50;7.67;;;3.27;;
20478;SDS011;10398;52.490;13.434;2023-02-28T07:20:16;5.43;;;2.63;;
20478;SDS011;10398;52.490;13.434;2023-02-28T07:22:42;7.53;;;3.27;;
20478;SDS011;10398;52.490;13.434;2023-02-28T07:25:08;7.77;;;3.30;;
20478;SDS011;10398;52.490;13.434;2023-02-28T07:27:33;10.47;;;3.67;;
20478;SDS011;10398;52.490;13.434;2023-02-28T07:29:59;8.63;;;3.20;;
20478;SDS011;10398;52.490;13.434;2023-02-28T07:32:26;8.80;;;3.83;;
20478;SDS011;10398;52.490;13.434;2023-02-28T07:34:52;15.70;;;3.53;;
20478;SDS011;10398;52.490;13.434;2023-02-28T07:37:18;8.17;;;3.23;;
20478;SDS011;10398;52.490;13.434;2023-02-28T07:39:44;6.70;;;2.83;;
20478;SDS011;10398;52.490;13.434;2023-02-28T07:42:10;12.27;;;2.97;;
20478;SDS011;10398;52.490;13.434;2023-02-28T07:44:37;8.60;;;2.70;;
20478;SDS011;10398;52.490;13.434;2023-02-28T07:47:06;8.77;;;3.23;;
20478;SDS011;10398;52.490;13.434;2023-02-28T07:49:38;5.77;;;2.40;;
20478;SDS011;10398;52.490;13.434;2023-02-28T07:52:04;10.33;;;2.80;;
20478;SDS011;10398;52.490;13.434;2023-02-28T07:54:31;7.50;;;3.07;;
20478;SDS011;10398;52.490;13.434;2023-02-28T07:56:57;10.07;;;3.10;;
20478;SDS011;10398;52.490;13.434;2023-02-28T07:59:23;8.33;;;3.57;;
20478;SDS011;10398;52.490;13.434;2023-02-28T08:01:49;14.80;;;4.27;;
20478;SDS011;10398;52.490;13.434;2023-02-28T08:04:18;18.03;;;4.37;;
20478;SDS011;10398;52.490;13.434;2023-02-28T08:06:44;8.43;;;2.93;;
20478;SDS011;10398;52.490;13.434;2023-02-28T08:09:10;9.80;;;3.97;;
20478;SDS011;10398;52.490;13.434;2023-02-28T08:11:36;13.63;;;3.10;;
20478;SDS011;10398;52.490;13.434;2023-02-28T08:14:02;5.10;;;1.63;;
20478;SDS011;10398;52.490;13.434;2023-02-28T08:16:27;5.13;;;1.90;;
20478;SDS011;10398;52.490;13.434;2023-02-28T08:18:53;5.57;;;2.23;;
20478;SDS011;10398;52.490;13.434;2023-02-28T08:21:19;6.97;;;2.43;;
20478;SDS011;10398;52.490;13.434;2023-02-28T08:23:49;4.80;;;1.70;;
20478;SDS011;10398;52.490;13.434;2023-02-28T08:26:16;4.87;;;2.20;;
20478;SDS011;10398;52.490;13.434;2023-02-28T08:28:42;7.27;;;2.23;;
20478;SDS011;10398;52.490;13.434;2023-02-28T08:31:10;6.40;;;2.00;;
20478;SDS011;10398;52.490;13.434;2023-02-28T08:33:38;7.43;;;2.30;;
20478;SDS011;10398;52.490;13.434;2023-02-28T08:36:06;6.47;;;2.20;;
20478;SDS011;10398;52.490;13.434;2023-02-28T08:38:32;5.33;;;2.17;;
20478;SDS011;10398;52.490;13.434;2023-02-28T08:41:02;7.47;;;2.13;;
20478;SDS011;10398;52.490;13.434;2023-02-28T08:43:32;4.40;;;2.00;;
20478;SDS011;10398;52.490;13.434;2023-02-28T08:46:01;5.10;;;2.07;;
20478;SDS011;10398;52.490;13.434;2023-02-28T08:48:28;3.83;;;1.70;;
20478;SDS011;10398;52.490;13.434;2023-02-28T08:51:00;4.43;;;2.10;;
20478;SDS011;10398;52.490;13.434;2023-02-28T08:53:27;10.50;;;2.40;;
20478;SDS011;10398;52.490;13.434;2023-02-28T08:56:00;3.03;;;1.60;;
20478;SDS011;10398;52.490;13.434;2023-02-28T08:58:34;3.80;;;1.27;;
20478;SDS011;10398;52.490;13.434;2023-02-28T09:03:29;3.50;;;1.43;;
20478;SDS011;10398;52.490;13.434;2023-02-28T09:05:55;3.60;;;1.30;;
20478;SDS011;10398;52.490;13.434;2023-02-28T09:08:23;3.10;;;1.50;;
20478;SDS011;10398;52.490;13.434;2023-02-28T09:10:50;3.27;;;1.20;;
20478;SDS011;10398;52.490;13.434;2023-02-28T09:13:17;3.47;;;1.83;;
20478;SDS011;10398;52.490;13.434;2023-02-28T09:15:43;3.70;;;1.53;;
20478;SDS011;10398;52.490;13.434;2023-02-28T09:18:09;6.73;;;1.43;;
20478;SDS011;10398;52.490;13.434;2023-02-28T09:20:37;6.50;;;1.70;;
20478;SDS011;10398;52.490;13.434;2023-02-28T09:23:03;3.27;;;1.47;;
20478;SDS011;10398;52.490;13.434;2023-02-28T09:25:29;3.73;;;1.10;;
20478;SDS011;10398;52.490;13.434;2023-02-28T09:27:54;2.53;;;1.30;;
20478;SDS011;10398;52.490;13.434;2023-02-28T09:30:20;4.07;;;1.87;;
20478;SDS011;10398;52.490;13.434;2023-02-28T09:32:46;7.40;;;2.00;;
20478;SDS011;10398;52.490;13.434;2023-02-28T09:35:17;3.20;;;1.27;;
20478;SDS011;10398;52.490;13.434;2023-02-28T09:37:43;5.80;;;1.60;;
20478;SDS011;10398;52.490;13.434;2023-02-28T09:40:09;4.30;;;1.20;;
20478;SDS011;10398;52.490;13.434;2023-02-28T09:42:37;4.90;;;1.57;;
20478;SDS011;10398;52.490;13.434;2023-02-28T09:45:06;3.93;;;1.50;;
20478;SDS011;10398;52.490;13.434;2023-02-28T09:47:59;2.83;;;1.00;;
20478;SDS011;10398;52.490;13.434;2023-02-28T09:50:40;4.73;;;1.70;;
20478;SDS011;10398;52.490;13.434;2023-02-28T09:53:31;2.30;;;1.10;;
20478;SDS011;10398;52.490;13.434;2023-02-28T09:56:01;7.60;;;1.40;;
20478;SDS011;10398;52.490;13.434;2023-02-28T10:01:17;3.57;;;1.30;;
20478;SDS011;10398;52.490;13.434;2023-02-28T10:04:03;2.23;;;0.87;;
20478;SDS011;10398;52.490;13.434;2023-02-28T10:06:41;1.80;;;1.20;;
20478;SDS011;10398;52.490;13.434;2023-02-28T10:09:22;3.07;;;0.70;;
20478;SDS011;10398;52.490;13.434;2023-02-28T10:11:54;2.10;;;0.77;;
20478;SDS011;10398;52.490;13.434;2023-02-28T10:14:26;2.40;;;1.10;;
20478;SDS011;10398;52.490;13.434;2023-02-28T10:16:55;3.17;;;0.97;;
20478;SDS011;10398;52.490;13.434;2023-02-28T10:19:24;2.50;;;1.23;;
20478;SDS011;10398;52.490;13.434;2023-02-28T10:22:11;3.00;;;1.20;;
20478;SDS011;10398;52.490;13.434;2023-02-28T10:24:43;3.13;;;1.20;;
20478;SDS011;10398;52.490;13.434;2023-02-28T10:27:17;2.23;;;1.00;;
20478;SDS011;10398;52.490;13.434;2023-02-28T10:29:44;2.50;;;1.30;;
20478;SDS011;10398;52.490;13.434;2023-02-28T10:32:15;5.27;;;1.20;;
20478;SDS011;10398;52.490;13.434;2023-02-28T10:34:43;4.83;;;1.50;;
20478;SDS011;10398;52.490;13.434;2023-02-28T10:37:10;2.30;;;1.27;;
20478;SDS011;10398;52.490;13.434;2023-02-28T10:39:39;2.10;;;1.20;;
20478;SDS011;10398;52.490;13.434;2023-02-28T10:42:18;2.63;;;1.17;;
20478;SDS011;10398;52.490;13.434;2023-02-28T10:44:46;4.03;;;1.50;;
20478;SDS011;10398;52.490;13.434;2023-02-28T10:47:16;1.87;;;1.00;;
20478;SDS011;10398;52.490;13.434;2023-02-28T10:49:48;3.43;;;1.27;;
20478;SDS011;10398;52.490;13.434;2023-02-28T10:52:15;1.97;;;1.13;;
20478;SDS011;10398;52.490;13.434;2023-02-28T10:58:00;6.03;;;1.80;;
20478;SDS011;10398;52.490;13.434;2023-02-28T11:00:26;3.10;;;1.30;;
20478;SDS011;10398;52.490;13.434;2023-02-28T11:02:58;3.63;;;1.33;;
20478;SDS011;10398;52.490;13.434;2023-02-28T11:07:53;4.20;;;1.47;;
20478;SDS011;10398;52.490;13.434;2023-02-28T11:10:21;2.63;;;1.40;;
20478;SDS011;10398;52.490;13.434;2023-02-28T11:12:50;3.47;;;1.70;;
20478;SDS011;10398;52.490;13.434;2023-02-28T11:17:55;5.33;;;1.40;;
20478;SDS011;10398;52.490;13.434;2023-02-28T11:20:36;4.47;;;1.73;;
20478;SDS011;10398;52.490;13.434;2023-02-28T11:23:03;3.83;;;1.57;;
20478;SDS011;10398;52.490;13.434;2023-02-28T11:25:30;3.83;;;1.60;;
20478;SDS011;10398;52.490;13.434;2023-02-28T11:28:02;4.50;;;1.83;;
20478;SDS011;10398;52.490;13.434;2023-02-28T11:30:34;4.37;;;2.13;;
20478;SDS011;10398;52.490;13.434;2023-02-28T11:35:53;4.40;;;1.93;;
20478;SDS011;10398;52.490;13.434;2023-02-28T11:38:24;3.37;;;1.80;;
20478;SDS011;10398;52.490;13.434;2023-02-28T11:48:56;6.93;;;2.00;;
20478;SDS011;10398;52.490;13.434;2023-02-28T11:51:33;2.87;;;1.60;;
20478;SDS011;10398;52.490;13.434;2023-02-28T11:57:07;5.53;;;2.00;;
20478;SDS011;10398;52.490;13.434;2023-02-28T12:05:49;5.20;;;1.53;;
20478;SDS011;10398;52.490;13.434;2023-02-28T12:19:13;3.57;;;1.90;;
20478;SDS011;10398;52.490;13.434;2023-02-28T12:22:10;6.13;;;1.97;;
20478;SDS011;10398;52.490;13.434;2023-02-28T12:27:13;4.13;;;1.83;;
20478;SDS011;10398;52.490;13.434;2023-02-28T12:33:06;7.17;;;1.80;;
20478;SDS011;10398;52.490;13.434;2023-02-28T12:35:38;3.80;;;1.90;;
20478;SDS011;10398;52.490;13.434;2023-02-28T12:40:45;4.27;;;1.50;;
20478;SDS011;10398;52.490;13.434;2023-02-28T12:43:19;3.63;;;1.50;;
20478;SDS011;10398;52.490;13.434;2023-02-28T12:45:58;2.73;;;1.30;;
20478;SDS011;10398;52.490;13.434;2023-02-28T12:48:31;4.73;;;1.60;;
20478;SDS011;10398;52.490;13.434;2023-02-28T12:51:07;3.03;;;1.60;;
20478;SDS011;10398;52.490;13.434;2023-02-28T12:53:53;4.80;;;1.77;;
20478;SDS011;10398;52.490;13.434;2023-02-28T12:59:29;6.20;;;1.97;;
20478;SDS011;10398;52.490;13.434;2023-02-28T13:10:50;4.40;;;1.83;;
20478;SDS011;10398;52.490;13.434;2023-02-28T13:13:22;4.03;;;1.90;;
20478;SDS011;10398;52.490;13.434;2023-02-28T13:15:58;4.47;;;1.80;;
20478;SDS011;10398;52.490;13.434;2023-02-28T13:18:30;6.03;;;2.00;;
20478;SDS011;10398;52.490;13.434;2023-02-28T13:20:57;3.33;;;1.40;;
20478;SDS011;10398;52.490;13.434;2023-02-28T13:34:31;4.80;;;2.07;;
20478;SDS011;10398;52.490;13.434;2023-02-28T13:52:51;4.07;;;1.77;;
20478;SDS011;10398;52.490;13.434;2023-02-28T13:55:36;4.93;;;2.20;;
20478;SDS011;10398;52.490;13.434;2023-02-28T14:01:20;6.67;;;1.90;;
20478;SDS011;10398;52.490;13.434;2023-02-28T14:06:38;12.67;;;1.93;;
20478;SDS011;10398;52.490;13.434;2023-02-28T14:11:43;4.10;;;1.63;;
20478;SDS011;10398;52.490;13.434;2023-02-28T14:14:10;7.97;;;1.97;;
20478;SDS011;10398;52.490;13.434;2023-02-28T14:17:05;12.73;;;2.53;;
20478;SDS011;10398;52.490;13.434;2023-02-28T14:19:34;5.67;;;1.87;;
20478;SDS011;10398;52.490;13.434;2023-02-28T14:25:09;5.90;;;1.50;;
20478;SDS011;10398;52.490;13.434;2023-02-28T14:38:30;11.20;;;2.23;;
20478;SDS011;10398;52.490;13.434;2023-02-28T14:40:58;15.70;;;2.30;;
20478;SDS011;10398;52.490;13.434;2023-02-28T14:43:28;15.33;;;2.83;;
20478;SDS011;10398;52.490;13.434;2023-02-28T14:45:58;8.33;;;2.20;;
20478;SDS011;10398;52.490;13.434;2023-02-28T14:48:26;7.50;;;1.87;;
20478;SDS011;10398;52.490;13.434;2023-02-28T14:50:57;8.73;;;2.20;;
20478;SDS011;10398;52.490;13.434;2023-02-28T14:53:28;4.53;;;2.20;;
20478;SDS011;10398;52.490;13.434;2023-02-28T14:55:56;9.73;;;2.10;;
20478;SDS011;10398;52.490;13.434;2023-02-28T15:00:52;6.93;;;2.17;;
20478;SDS011;10398;52.490;13.434;2023-02-28T15:03:22;7.37;;;2.33;;
20478;SDS011;10398;52.490;13.434;2023-02-28T15:05:59;7.57;;;2.90;;
20478;SDS011;10398;52.490;13.434;2023-02-28T15:08:30;6.63;;;2.17;;
20478;SDS011;10398;52.490;13.434;2023-02-28T15:11:13;7.07;;;2.40;;
20478;SDS011;10398;52.490;13.434;2023-02-28T15:13:45;7.97;;;2.60;;
20478;SDS011;10398;52.490;13.434;2023-02-28T15:16:22;5.70;;;2.07;;
20478;SDS011;10398;52.490;13.434;2023-02-28T15:19:22;10.23;;;2.60;;
20478;SDS011;10398;52.490;13.434;2023-02-28T15:21:59;6.63;;;2.40;;
20478;SDS011;10398;52.490;13.434;2023-02-28T15:24:31;7.07;;;2.27;;
20478;SDS011;10398;52.490;13.434;2023-02-28T15:27:07;8.80;;;2.60;;
20478;SDS011;10398;52.490;13.434;2023-02-28T15:29:56;5.37;;;1.83;;
20478;SDS011;10398;52.490;13.434;2023-02-28T15:32:31;3.90;;;1.67;;
20478;SDS011;10398;52.490;13.434;2023-02-28T15:38:16;6.17;;;2.07;;
20478;SDS011;10398;52.490;13.434;2023-02-28T15:40:51;9.57;;;2.43;;
20478;SDS011;10398;52.490;13.434;2023-02-28T15:45:59;4.70;;;1.90;;
20478;SDS011;10398;52.490;13.434;2023-02-28T15:48:31;4.67;;;1.97;;
20478;SDS011;10398;52.490;13.434;2023-02-28T15:51:06;3.93;;;1.87;;
20478;SDS011;10398;52.490;13.434;2023-02-28T15:54:19;5.17;;;1.93;;
20478;SDS011;10398;52.490;13.434;2023-02-28T15:56:29;7.30;;;2.07;;
20478;SDS011;10398;52.490;13.434;2023-02-28T15:58:57;6.73;;;2.00;;
20478;SDS011;10398;52.490;13.434;2023-02-28T16:01:32;3.57;;;1.83;;
20478;SDS011;10398;52.490;13.434;2023-02-28T16:04:03;4.63;;;1.83;;
20478;SDS011;10398;52.490;13.434;2023-02-28T16:06:43;4.40;;;1.97;;
20478;SDS011;10398;52.490;13.434;2023-02-28T16:09:11;4.70;;;2.10;;
20478;SDS011;10398;52.490;13.434;2023-02-28T16:11:48;3.57;;;1.60;;
20478;SDS011;10398;52.490;13.434;2023-02-28T16:14:17;4.90;;;1.70;;
20478;SDS011;10398;52.490;13.434;2023-02-28T16:16:46;6.03;;;1.80;;
20478;SDS011;10398;52.490;13.434;2023-02-28T16:19:14;6.27;;;1.90;;
20478;SDS011;10398;52.490;13.434;2023-02-28T16:21:40;2.83;;;1.40;;
20478;SDS011;10398;52.490;13.434;2023-02-28T16:24:06;3.87;;;1.77;;
20478;SDS011;10398;52.490;13.434;2023-02-28T16:26:32;7.53;;;2.10;;
20478;SDS011;10398;52.490;13.434;2023-02-28T16:28:59;4.83;;;2.27;;
20478;SDS011;10398;52.490;13.434;2023-02-28T16:31:28;7.00;;;1.67;;
20478;SDS011;10398;52.490;13.434;2023-02-28T16:33:54;3.43;;;1.73;;
20478;SDS011;10398;52.490;13.434;2023-02-28T16:36:21;7.73;;;2.50;;
20478;SDS011;10398;52.490;13.434;2023-02-28T16:38:50;5.53;;;2.23;;
20478;SDS011;10398;52.490;13.434;2023-02-28T16:41:17;6.37;;;2.13;;
20478;SDS011;10398;52.490;13.434;2023-02-28T16:43:45;5.50;;;2.20;;
20478;SDS011;10398;52.490;13.434;2023-02-28T16:46:12;6.63;;;1.50;;
20478;SDS011;10398;52.490;13.434;2023-02-28T16:48:38;8.00;;;2.20;;
20478;SDS011;10398;52.490;13.434;2023-02-28T16:51:05;4.77;;;2.00;;
20478;SDS011;10398;52.490;13.434;2023-02-28T16:53:36;5.17;;;2.27;;
20478;SDS011;10398;52.490;13.434;2023-02-28T16:56:02;3.53;;;1.80;;
20478;SDS011;10398;52.490;13.434;2023-02-28T16:58:29;5.43;;;1.57;;
20478;SDS011;10398;52.490;13.434;2023-02-28T17:00:55;4.67;;;2.03;;
20478;SDS011;10398;52.490;13.434;2023-02-28T17:05:50;5.93;;;1.80;;
20478;SDS011;10398;52.490;13.434;2023-02-28T17:08:16;6.97;;;2.77;;
20478;SDS011;10398;52.490;13.434;2023-02-28T17:10:42;5.83;;;2.20;;
20478;SDS011;10398;52.490;13.434;2023-02-28T17:13:08;6.27;;;2.27;;
20478;SDS011;10398;52.490;13.434;2023-02-28T17:15:34;6.30;;;2.30;;
20478;SDS011;10398;52.490;13.434;2023-02-28T17:18:00;7.77;;;2.57;;
20478;SDS011;10398;52.490;13.434;2023-02-28T17:20:26;11.20;;;2.40;;